createdAt,value
2023-04-13T00:00:53.132Z,10.38
2023-04-13T00:03:21.057Z,6.95
2023-04-13T00:05:49.089Z,7.35
2023-04-13T00:08:17.436Z,9.90
2023-04-13T00:10:46.336Z,7.47
2023-04-13T00:13:15.206Z,6.90
2023-04-13T00:15:44.003Z,5.60
2023-04-13T00:18:12.391Z,7.28
2023-04-13T00:20:42.125Z,5.78
2023-04-13T00:23:10.263Z,4.75
2023-04-13T00:25:37.885Z,6.93
2023-04-13T00:28:06.793Z,5.78
2023-04-13T00:30:34.571Z,7.57
2023-04-13T00:33:05.163Z,4.97
2023-04-13T00:35:32.899Z,7.32
2023-04-13T00:38:03.313Z,3.97
2023-04-13T00:40:30.918Z,4.70
2023-04-13T00:42:58.615Z,6.72
2023-04-13T00:45:26.596Z,4.53
2023-04-13T00:47:54.425Z,5.28
2023-04-13T00:50:22.109Z,4.90
2023-04-13T00:52:50.082Z,7.05
2023-04-13T00:55:21.675Z,5.05
2023-04-13T00:57:53.580Z,5.35
2023-04-13T01:00:22.488Z,5.25
2023-04-13T01:02:51.553Z,4.32
2023-04-13T01:05:19.978Z,3.92
2023-04-13T01:07:53.917Z,5.18
2023-04-13T01:10:27.965Z,5.32
2023-04-13T01:13:04.663Z,6.25
2023-04-13T01:15:40.357Z,5.63
2023-04-13T01:18:10.290Z,5.68
2023-04-13T01:20:41.752Z,4.72
2023-04-13T01:23:31.560Z,8.68
2023-04-13T01:26:02.580Z,5.07
2023-04-13T01:28:31.495Z,5.22
2023-04-13T01:31:01.729Z,5.40
2023-04-13T01:33:30.982Z,4.82
2023-04-13T01:36:02.422Z,4.00
2023-04-13T01:38:31.612Z,4.10
2023-04-13T01:41:01.469Z,7.78
2023-04-13T01:43:31.813Z,6.75
2023-04-13T01:46:16.259Z,5.85
2023-04-13T01:48:56.880Z,5.40
2023-04-13T01:51:48.604Z,13.27
2023-04-13T01:54:26.026Z,8.38
2023-04-13T01:56:57.410Z,9.43
2023-04-13T01:59:25.319Z,8.75
2023-04-13T02:01:53.008Z,8.18
2023-04-13T02:04:21.429Z,8.73
2023-04-13T02:06:51.800Z,9.43
2023-04-13T02:09:28.458Z,10.32
2023-04-13T02:11:56.423Z,7.15
2023-04-13T02:14:23.876Z,7.07
2023-04-13T02:16:54.020Z,10.85
2023-04-13T02:19:22.124Z,11.50
2023-04-13T02:21:49.520Z,7.28
2023-04-13T02:24:18.770Z,11.65
2023-04-13T02:26:46.365Z,8.40
2023-04-13T02:29:13.929Z,7.43
2023-04-13T02:31:44.574Z,6.93
2023-04-13T02:34:12.016Z,7.07
2023-04-13T02:36:40.862Z,8.77
2023-04-13T02:39:09.972Z,15.30
2023-04-13T02:44:38.966Z,9.68
2023-04-13T02:47:11.219Z,6.70
2023-04-13T02:49:57.462Z,6.65
2023-04-13T02:52:45.415Z,11.55
2023-04-13T02:55:13.426Z,7.60
2023-04-13T02:57:50.324Z,7.63
2023-04-13T03:00:18.834Z,11.88
2023-04-13T03:02:53.472Z,11.05
2023-04-13T03:05:22.916Z,13.20
2023-04-13T03:07:50.331Z,10.35
2023-04-13T03:10:19.287Z,12.45
2023-04-13T03:12:48.209Z,11.07
2023-04-13T03:15:18.469Z,12.25
2023-04-13T03:17:46.196Z,9.77
2023-04-13T03:20:23.860Z,10.52
2023-04-13T03:22:57.428Z,10.85
2023-04-13T03:25:26.356Z,14.45
2023-04-13T03:27:53.902Z,14.13
2023-04-13T03:30:23.679Z,10.40
2023-04-13T03:33:01.196Z,12.32
2023-04-13T03:35:32.558Z,15.35
2023-04-13T03:38:02.635Z,14.63
2023-04-13T03:40:39.016Z,11.65
2023-04-13T03:43:06.894Z,8.15
2023-04-13T03:45:38.292Z,13.13
2023-04-13T03:48:11.232Z,16.27
2023-04-13T03:50:38.799Z,9.05
2023-04-13T03:53:08.266Z,10.32
2023-04-13T03:55:37.978Z,8.38
2023-04-13T03:58:07.987Z,13.57
2023-04-13T04:00:36.063Z,8.63
2023-04-13T04:03:11.973Z,11.52
2023-04-13T04:05:52.072Z,8.15
2023-04-13T04:08:19.675Z,8.52
2023-04-13T04:10:48.648Z,11.98
2023-04-13T04:13:17.710Z,7.72
2023-04-13T04:15:50.265Z,9.13
2023-04-13T04:18:18.157Z,8.45
2023-04-13T04:20:45.754Z,5.28
2023-04-13T04:23:14.295Z,6.07
2023-04-13T04:25:52.232Z,7.22
2023-04-13T04:28:20.317Z,5.10
2023-04-13T04:30:54.617Z,5.70
2023-04-13T04:33:25.918Z,9.45
2023-04-13T04:35:54.579Z,7.32
2023-04-13T04:40:58.002Z,7.85
2023-04-13T04:43:27.486Z,5.45
2023-04-13T04:45:58.025Z,5.13
2023-04-13T04:48:27.266Z,6.00
2023-04-13T04:50:58.590Z,11.52
2023-04-13T04:53:31.309Z,5.35
2023-04-13T04:55:58.918Z,9.60
2023-04-13T04:58:43.601Z,7.07
2023-04-13T05:01:11.248Z,11.82
2023-04-13T05:03:39.769Z,7.68
2023-04-13T05:06:33.097Z,6.82
2023-04-13T05:09:02.776Z,5.93
2023-04-13T05:11:32.549Z,7.85
2023-04-13T05:14:02.559Z,5.97
2023-04-13T05:16:31.070Z,7.85
2023-04-13T05:19:08.210Z,9.63
2023-04-13T05:21:53.422Z,7.50
2023-04-13T05:24:22.488Z,7.68
2023-04-13T05:26:51.966Z,8.50
2023-04-13T05:29:22.962Z,4.22
2023-04-13T05:31:51.413Z,6.88
2023-04-13T05:34:20.208Z,6.65
2023-04-13T05:37:06.408Z,6.63
2023-04-13T05:39:34.179Z,3.95
2023-04-13T05:42:02.227Z,9.23
2023-04-13T05:44:33.089Z,7.13
2023-04-13T05:47:02.509Z,2.85
2023-04-13T05:49:33.353Z,9.90
2023-04-13T05:52:01.277Z,6.32
2023-04-13T05:54:40.142Z,7.60
2023-04-13T05:57:08.001Z,7.03
2023-04-13T05:59:38.703Z,12.15
2023-04-13T06:02:07.205Z,7.38
2023-04-13T06:04:36.806Z,5.32
2023-04-13T06:07:07.449Z,5.18
2023-04-13T06:09:35.062Z,8.88
2023-04-13T06:12:03.079Z,8.30
2023-04-13T06:14:30.651Z,3.17
2023-04-13T06:16:58.332Z,9.20
2023-04-13T06:19:29.166Z,7.13
2023-04-13T06:21:57.404Z,5.68
2023-04-13T06:24:24.828Z,6.95
2023-04-13T06:26:52.588Z,7.78
2023-04-13T06:29:20.855Z,7.28
2023-04-13T06:32:01.615Z,7.43
2023-04-13T06:34:29.209Z,10.15
2023-04-13T06:36:57.819Z,6.28
2023-04-13T06:39:28.799Z,4.78
2023-04-13T06:42:01.373Z,6.68
2023-04-13T06:47:36.363Z,4.57
2023-04-13T06:50:07.005Z,4.47
2023-04-13T06:52:40.685Z,16.60
2023-04-13T06:55:08.654Z,16.58
2023-04-13T06:57:40.869Z,7.15
2023-04-13T07:00:25.984Z,7.90
2023-04-13T07:02:58.920Z,7.57
2023-04-13T07:05:26.836Z,8.98
2023-04-13T07:07:58.788Z,8.95
2023-04-13T07:10:26.957Z,9.57
2023-04-13T07:12:56.892Z,4.18
2023-04-13T07:15:27.752Z,6.20
2023-04-13T07:17:56.262Z,5.55
2023-04-13T07:20:23.870Z,4.15
2023-04-13T07:22:51.620Z,7.00
2023-04-13T07:25:19.340Z,4.95
2023-04-13T07:27:47.418Z,5.60
2023-04-13T07:30:16.737Z,5.43
2023-04-13T07:32:47.093Z,4.18
2023-04-13T07:35:14.800Z,6.10
2023-04-13T07:37:44.833Z,2.92
2023-04-13T07:40:15.356Z,6.97
2023-04-13T07:42:50.303Z,5.38
2023-04-13T07:45:20.290Z,4.47
2023-04-13T07:47:48.833Z,4.90
2023-04-13T07:50:18.252Z,6.40
2023-04-13T07:52:47.528Z,5.60
2023-04-13T07:55:20.061Z,4.18
2023-04-13T07:57:49.462Z,2.92
2023-04-13T08:00:20.720Z,6.85
2023-04-13T08:02:54.681Z,4.43
2023-04-13T08:05:26.400Z,5.85
2023-04-13T08:07:54.118Z,6.90
2023-04-13T08:10:22.006Z,5.43
2023-04-13T08:12:49.564Z,4.18
2023-04-13T08:15:19.637Z,4.85
2023-04-13T08:17:47.633Z,7.47
2023-04-13T08:20:16.325Z,4.57
2023-04-13T08:22:46.622Z,4.05
2023-04-13T08:25:14.126Z,3.65
2023-04-13T08:27:41.914Z,7.78
2023-04-13T08:30:14.764Z,4.95
2023-04-13T08:32:54.177Z,5.28
2023-04-13T08:35:23.724Z,5.35
2023-04-13T08:37:54.155Z,5.95
2023-04-13T08:40:22.948Z,6.85
2023-04-13T08:42:56.265Z,4.53
2023-04-13T08:45:24.198Z,16.63
2023-04-13T08:47:51.852Z,6.30
2023-04-13T08:50:23.247Z,7.07
2023-04-13T08:52:54.549Z,4.47
2023-04-13T08:55:24.245Z,4.10
2023-04-13T08:57:57.270Z,4.50
2023-04-13T09:00:25.644Z,3.97
2023-04-13T09:03:05.712Z,2.88
2023-04-13T09:05:41.590Z,3.17
2023-04-13T09:08:16.261Z,5.03
2023-04-13T09:11:00.706Z,4.25
2023-04-13T09:13:28.308Z,6.40
2023-04-13T09:15:57.107Z,6.47
2023-04-13T09:18:52.624Z,9.25
2023-04-13T09:21:20.449Z,3.78
2023-04-13T09:23:58.970Z,3.15
2023-04-13T09:26:27.365Z,4.93
2023-04-13T09:28:58.470Z,3.97
2023-04-13T09:31:26.332Z,5.63
2023-04-13T09:33:53.876Z,4.43
2023-04-13T09:36:22.962Z,4.07
2023-04-13T09:38:56.356Z,5.75
2023-04-13T09:41:38.856Z,3.83
2023-04-13T09:44:21.466Z,6.10
2023-04-13T09:47:02.397Z,9.07
2023-04-13T09:49:57.715Z,16.60
2023-04-13T09:52:27.093Z,6.45
2023-04-13T09:54:57.539Z,6.35
2023-04-13T09:57:29.555Z,8.35
2023-04-13T10:00:01.370Z,9.07
2023-04-13T10:02:39.993Z,5.03
2023-04-13T10:05:10.523Z,7.20
2023-04-13T10:07:38.494Z,5.80
2023-04-13T10:10:09.333Z,10.20
2023-04-13T10:12:48.008Z,5.85
2023-04-13T10:18:37.104Z,9.27
2023-04-13T10:21:07.458Z,9.50
2023-04-13T10:23:35.676Z,8.77
2023-04-13T10:26:04.395Z,6.35
2023-04-13T10:28:43.535Z,6.97
2023-04-13T10:31:11.151Z,5.07
2023-04-13T10:33:57.582Z,7.32
2023-04-13T10:36:38.687Z,6.07
2023-04-13T10:39:06.563Z,7.80
2023-04-13T10:41:34.543Z,7.75
2023-04-13T10:44:09.246Z,7.32
2023-04-13T10:46:37.007Z,9.80
2023-04-13T10:49:05.425Z,12.00
2023-04-13T10:51:59.394Z,8.43
2023-04-13T10:54:30.123Z,9.52
2023-04-13T10:57:03.998Z,8.48
2023-04-13T10:59:56.179Z,10.55
2023-04-13T11:02:27.010Z,15.32
2023-04-13T11:04:55.225Z,11.63
2023-04-13T11:07:26.336Z,12.77
2023-04-13T11:12:30.730Z,24.50
2023-04-13T11:14:58.296Z,16.83
2023-04-13T11:17:25.864Z,27.17
2023-04-13T11:19:55.102Z,10.45
2023-04-13T11:22:28.140Z,9.95
2023-04-13T11:25:09.313Z,13.05
2023-04-13T11:27:38.279Z,8.35
2023-04-13T11:30:09.952Z,9.60
2023-04-13T11:32:41.878Z,8.25
2023-04-13T11:35:16.894Z,10.82
2023-04-13T11:37:49.119Z,8.55
2023-04-13T11:40:21.650Z,7.72
2023-04-13T11:43:00.398Z,8.18
2023-04-13T11:45:29.700Z,6.45
2023-04-13T11:47:58.301Z,5.32
2023-04-13T11:50:26.423Z,18.10
2023-04-13T11:52:57.414Z,10.48
2023-04-13T11:55:25.912Z,7.25
2023-04-13T11:57:54.679Z,4.90
2023-04-13T12:00:24.805Z,8.80
2023-04-13T12:05:33.607Z,11.85
2023-04-13T12:08:04.619Z,9.25
2023-04-13T12:10:46.708Z,6.75
2023-04-13T12:13:35.987Z,11.23
2023-04-13T12:16:11.210Z,8.32
2023-04-13T12:18:49.596Z,4.43
2023-04-13T12:21:20.305Z,10.32
2023-04-13T12:23:58.557Z,6.28
2023-04-13T12:29:09.461Z,9.77
2023-04-13T12:31:39.501Z,20.92
2023-04-13T12:34:11.116Z,9.35
2023-04-13T12:36:38.603Z,6.38
2023-04-13T12:39:07.103Z,4.25
2023-04-13T12:41:34.635Z,7.65
2023-04-13T12:44:02.116Z,6.50
2023-04-13T12:46:29.962Z,7.43
2023-04-13T12:48:57.613Z,9.00
2023-04-13T12:51:26.529Z,5.88
2023-04-13T12:53:53.910Z,5.38
2023-04-13T12:56:21.391Z,7.10
2023-04-13T12:58:49.003Z,3.35
2023-04-13T13:01:16.524Z,7.65
2023-04-13T13:03:45.612Z,5.85
2023-04-13T13:06:13.112Z,10.27
2023-04-13T13:08:40.666Z,6.95
2023-04-13T13:11:11.519Z,5.78
2023-04-13T13:13:39.020Z,10.27
2023-04-13T13:16:06.939Z,9.48
2023-04-13T13:18:47.043Z,7.88
2023-04-13T13:21:17.621Z,4.00
2023-04-13T13:23:45.996Z,4.05
2023-04-13T13:26:23.765Z,10.40
2023-04-13T13:28:52.762Z,6.03
2023-04-13T13:31:20.425Z,5.00
2023-04-13T13:33:48.038Z,4.05
2023-04-13T13:36:15.681Z,6.10
2023-04-13T13:38:43.683Z,6.38
2023-04-13T13:41:12.202Z,5.95
2023-04-13T13:43:40.317Z,6.13
2023-04-13T13:46:08.009Z,6.63
2023-04-13T13:48:38.125Z,4.68
2023-04-13T13:51:36.078Z,4.95
2023-04-13T13:56:33.813Z,2.78
2023-04-13T13:59:01.747Z,4.70
2023-04-13T14:01:32.534Z,6.03
2023-04-13T14:04:02.454Z,7.22
2023-04-13T14:06:32.748Z,4.63
2023-04-13T14:09:00.767Z,4.03
2023-04-13T14:11:28.818Z,5.90
2023-04-13T14:13:56.570Z,5.20
2023-04-13T14:16:26.226Z,5.00
2023-04-13T14:18:56.094Z,5.93
2023-04-13T14:21:23.801Z,5.30
2023-04-13T14:23:54.474Z,3.40
2023-04-13T14:26:24.224Z,5.97
2023-04-13T14:28:52.160Z,4.18
2023-04-13T14:31:19.843Z,2.80
2023-04-13T14:33:47.539Z,4.18
2023-04-13T14:36:17.221Z,3.35
2023-04-13T14:38:44.927Z,3.60
2023-04-13T14:41:12.544Z,6.65
2023-04-13T14:43:40.286Z,3.35
2023-04-13T14:46:09.230Z,3.05
2023-04-13T14:48:37.045Z,3.22
2023-04-13T14:51:04.778Z,3.83
2023-04-13T14:53:32.488Z,4.10
2023-04-13T14:56:00.222Z,3.22
2023-04-13T14:58:29.313Z,2.92
2023-04-13T15:00:57.048Z,3.95
2023-04-13T15:03:24.734Z,4.40
2023-04-13T15:06:29.222Z,3.42
2023-04-13T15:08:56.804Z,3.78
2023-04-13T15:11:27.604Z,3.72
2023-04-13T15:13:55.270Z,3.83
2023-04-13T15:16:24.605Z,2.67
2023-04-13T15:18:52.242Z,4.18
2023-04-13T15:21:19.904Z,4.70
2023-04-13T15:23:47.622Z,4.97
2023-04-13T15:26:19.048Z,4.47
2023-04-13T15:28:47.993Z,3.75
2023-04-13T15:31:15.856Z,3.10
2023-04-13T15:33:43.564Z,4.93
2023-04-13T15:36:16.234Z,3.78
2023-04-13T15:39:03.967Z,7.28
2023-04-13T15:41:35.013Z,4.82
2023-04-13T15:44:03.840Z,4.80
2023-04-13T15:46:37.540Z,3.92
2023-04-13T15:49:05.238Z,2.53
2023-04-13T15:51:33.223Z,2.67
2023-04-13T15:54:03.835Z,3.38
2023-04-13T15:56:31.747Z,4.60
2023-04-13T15:58:59.660Z,3.72
2023-04-13T16:01:27.974Z,2.80
2023-04-13T16:03:56.098Z,2.55
2023-04-13T16:06:24.093Z,5.30
2023-04-13T16:08:51.615Z,5.07
2023-04-13T16:11:21.158Z,4.07
2023-04-13T16:13:50.052Z,2.40
2023-04-13T16:16:21.334Z,3.40
2023-04-13T16:18:49.612Z,3.47
2023-04-13T16:21:19.802Z,3.03
2023-04-13T16:23:47.601Z,4.65
2023-04-13T16:26:15.144Z,2.72
2023-04-13T16:28:42.913Z,2.40
2023-04-13T16:31:11.502Z,3.45
2023-04-13T16:33:56.094Z,4.22
2023-04-13T16:36:27.670Z,3.92
2023-04-13T16:38:55.326Z,3.55
2023-04-13T16:41:23.835Z,3.55
2023-04-13T16:43:51.610Z,4.57
2023-04-13T16:46:19.280Z,3.00
2023-04-13T16:48:46.966Z,3.38
2023-04-13T16:51:14.589Z,5.15
2023-04-13T16:53:44.438Z,6.00
2023-04-13T16:56:13.850Z,3.78
2023-04-13T16:58:43.398Z,3.92
2023-04-13T17:01:11.168Z,4.43
2023-04-13T17:03:39.018Z,3.17
2023-04-13T17:06:07.472Z,3.17
2023-04-13T17:08:35.024Z,3.47
2023-04-13T17:11:02.944Z,3.50
2023-04-13T17:13:30.525Z,3.47
2023-04-13T17:15:58.167Z,2.78
2023-04-13T17:18:26.236Z,3.40
2023-04-13T17:20:55.282Z,2.95
2023-04-13T17:23:23.773Z,2.78
2023-04-13T17:25:54.653Z,5.75
2023-04-13T17:28:23.728Z,4.07
2023-04-13T17:30:51.678Z,5.22
2023-04-13T17:33:19.420Z,4.05
2023-04-13T17:35:47.822Z,3.65
2023-04-13T17:38:15.619Z,5.18
2023-04-13T17:40:43.326Z,4.40
2023-04-13T17:43:11.267Z,2.63
2023-04-13T17:45:40.454Z,3.83
2023-04-13T17:48:08.777Z,2.78
2023-04-13T17:50:36.492Z,5.00
2023-04-13T17:53:04.792Z,3.20
2023-04-13T17:55:33.750Z,3.10
2023-04-13T17:58:01.453Z,5.47
2023-04-13T18:00:29.464Z,2.88
2023-04-13T18:02:58.381Z,4.53
2023-04-13T18:05:27.077Z,4.13
2023-04-13T18:07:54.830Z,3.90
2023-04-13T18:10:22.434Z,3.53
2023-04-13T18:12:50.179Z,4.07
2023-04-13T18:15:21.165Z,5.97
2023-04-13T18:17:48.894Z,2.97
2023-04-13T18:20:16.494Z,4.57
2023-04-13T18:22:44.425Z,3.38
2023-04-13T18:25:15.183Z,3.92
2023-04-13T18:27:44.094Z,2.53
2023-04-13T18:30:12.497Z,5.55
2023-04-13T18:32:40.248Z,2.47
2023-04-13T18:35:08.262Z,2.63
2023-04-13T18:37:35.903Z,4.00
2023-04-13T18:40:05.664Z,3.53
2023-04-13T18:42:33.842Z,2.67
2023-04-13T18:45:01.425Z,1.70
2023-04-13T18:47:30.697Z,2.08
2023-04-13T18:49:58.615Z,4.00
2023-04-13T18:52:26.674Z,3.42
2023-04-13T18:54:54.726Z,3.17
2023-04-13T18:57:28.962Z,2.40
2023-04-13T19:00:11.822Z,2.85
2023-04-13T19:02:42.615Z,3.08
2023-04-13T19:05:12.824Z,5.20
2023-04-13T19:07:47.521Z,3.72
2023-04-13T19:10:15.098Z,4.32
2023-04-13T19:12:43.037Z,2.67
2023-04-13T19:15:11.278Z,2.72
2023-04-13T19:17:39.006Z,2.38
2023-04-13T19:20:10.365Z,5.05
2023-04-13T19:22:38.789Z,2.38
2023-04-13T19:25:14.284Z,2.78
2023-04-13T19:27:44.910Z,2.55
2023-04-13T19:30:14.008Z,3.20
2023-04-13T19:32:44.878Z,1.73
2023-04-13T19:35:13.164Z,3.45
2023-04-13T19:37:42.108Z,2.70
2023-04-13T19:40:10.653Z,6.07
2023-04-13T19:42:38.340Z,3.85
2023-04-13T19:45:06.431Z,3.20
2023-04-13T19:47:33.838Z,1.98
2023-04-13T19:50:01.485Z,4.18
2023-04-13T19:52:30.025Z,1.73
2023-04-13T19:54:57.694Z,3.28
2023-04-13T19:57:25.346Z,2.65
2023-04-13T19:59:53.004Z,2.15
2023-04-13T20:02:20.774Z,2.63
2023-04-13T20:04:50.553Z,3.47
2023-04-13T20:07:18.567Z,2.15
2023-04-13T20:09:46.684Z,3.78
2023-04-13T20:12:14.487Z,3.17
2023-04-13T20:14:42.906Z,2.45
2023-04-13T20:17:11.471Z,2.42
2023-04-13T20:19:39.151Z,2.65
2023-04-13T20:22:07.347Z,3.13
2023-04-13T20:24:34.927Z,2.10
2023-04-13T20:27:02.364Z,1.85
2023-04-13T20:29:30.069Z,2.72
2023-04-13T20:31:57.965Z,2.45
2023-04-13T20:34:27.767Z,2.20
2023-04-13T20:36:56.755Z,3.65
2023-04-13T20:39:30.150Z,1.45
2023-04-13T20:41:57.914Z,2.92
2023-04-13T20:44:26.117Z,2.78
2023-04-13T20:46:57.313Z,3.20
2023-04-13T20:49:24.938Z,3.25
2023-04-13T20:51:57.587Z,2.92
2023-04-13T20:54:25.087Z,2.70
2023-04-13T20:56:52.504Z,2.10
2023-04-13T20:59:20.033Z,2.40
2023-04-13T21:01:49.108Z,2.45
2023-04-13T21:04:17.097Z,3.20
2023-04-13T21:06:45.248Z,2.85
2023-04-13T21:09:14.247Z,2.75
2023-04-13T21:11:44.933Z,2.83
2023-04-13T21:14:12.397Z,1.30
2023-04-13T21:16:39.869Z,2.80
2023-04-13T21:19:07.499Z,1.80
2023-04-13T21:21:36.263Z,2.53
2023-04-13T21:24:03.727Z,3.00
2023-04-13T21:26:31.278Z,2.20
2023-04-13T21:28:58.711Z,3.03
2023-04-13T21:31:26.206Z,2.60
2023-04-13T21:33:55.003Z,3.25
2023-04-13T21:38:53.239Z,2.90
2023-04-13T21:41:21.882Z,3.05
2023-04-13T21:43:49.414Z,2.95
2023-04-13T21:46:17.342Z,2.17
2023-04-13T21:48:44.809Z,4.28
2023-04-13T21:51:12.363Z,2.65
2023-04-13T21:53:39.828Z,1.83
2023-04-13T21:56:07.753Z,2.75
2023-04-13T21:58:40.476Z,4.43
2023-04-13T22:01:08.654Z,4.60
2023-04-13T22:03:41.504Z,2.13
2023-04-13T22:06:11.419Z,4.05
2023-04-13T22:08:39.421Z,2.85
2023-04-13T22:11:07.581Z,2.00
2023-04-13T22:13:35.109Z,2.38
2023-04-13T22:16:02.819Z,3.58
2023-04-13T22:18:30.392Z,1.67
2023-04-13T22:21:00.152Z,1.60
2023-04-13T22:23:27.818Z,2.95
2023-04-13T22:26:01.891Z,3.65
2023-04-13T22:28:31.311Z,2.78
2023-04-13T22:31:05.632Z,2.42
2023-04-13T22:33:36.321Z,1.52
2023-04-13T22:36:04.742Z,2.85
2023-04-13T22:38:32.719Z,4.45
2023-04-13T22:41:06.676Z,2.33
2023-04-13T22:46:01.666Z,2.42
2023-04-13T22:48:30.012Z,2.60
2023-04-13T22:51:01.688Z,2.50
2023-04-13T22:53:29.801Z,2.88
2023-04-13T22:55:57.387Z,2.75
2023-04-13T22:58:24.819Z,2.30
2023-04-13T23:00:52.414Z,2.95
2023-04-13T23:03:20.265Z,3.35
2023-04-13T23:05:47.883Z,2.05
2023-04-13T23:08:15.290Z,3.08
2023-04-13T23:10:42.793Z,3.35
2023-04-13T23:13:10.199Z,2.83
2023-04-13T23:15:38.280Z,1.80
2023-04-13T23:18:06.080Z,1.25
2023-04-13T23:20:33.656Z,3.10
2023-04-13T23:23:01.532Z,3.65
2023-04-13T23:25:29.100Z,2.95
2023-04-13T23:27:56.629Z,2.67
2023-04-13T23:30:24.060Z,2.70
2023-04-13T23:32:51.704Z,1.80
2023-04-13T23:35:19.291Z,2.78
2023-04-13T23:37:46.906Z,2.42
2023-04-13T23:40:14.478Z,3.47
2023-04-13T23:42:42.129Z,3.35
2023-04-13T23:45:09.864Z,3.28
2023-04-13T23:47:38.210Z,3.35
2023-04-13T23:50:06.418Z,2.03
2023-04-13T23:52:34.381Z,2.65
2023-04-13T23:55:01.939Z,3.28
2023-04-13T23:57:36.583Z,2.38
